<?xml version="1.0" encoding="UTF-8" standalone="no" ?>
<gpx xmlns="http://www.topografix.com/GPX/1/1" xmlns:xsi="http://www.w3.org/2001/XMLSchema-instance" xsi:schemaLocation="http://www.topografix.com/GPX/1/1 http://www.topografix.com/GPX/1/1/gpx.xsd" version="1.1" creator="VisuGPX - https://www.visugpx.com">
  <metadata>
    <name>Sonzay</name>
    <desc><![CDATA[
]]></desc>
  </metadata>
  <trk>
    <name><![CDATA[randogps37-89]]></name>
    <trkseg>
      <trkpt lat="47.52733" lon="0.46049">
        <ele>101</ele>
        <time>2016-11-15T17:37:24Z</time>
      </trkpt>
      <trkpt lat="47.52714" lon="0.4601">
        <ele>100</ele>
        <time>2016-11-15T17:39:24Z</time>
      </trkpt>
      <trkpt lat="47.52711" lon="0.45989">
        <ele>100</ele>
        <time>2016-11-15T17:41:24Z</time>
      </trkpt>
      <trkpt lat="47.52689" lon="0.45931">
        <ele>99</ele>
        <time>2016-11-15T17:43:24Z</time>
      </trkpt>
      <trkpt lat="47.52681" lon="0.45921">
        <ele>99</ele>
        <time>2016-11-15T17:45:24Z</time>
      </trkpt>
      <trkpt lat="47.52672" lon="0.45866">
        <ele>98</ele>
        <time>2016-11-15T17:47:24Z</time>
      </trkpt>
      <trkpt lat="47.52662" lon="0.45832">
        <ele>97</ele>
        <time>2016-11-15T17:49:24Z</time>
      </trkpt>
      <trkpt lat="47.5264" lon="0.45822">
        <ele>98</ele>
        <time>2016-11-15T17:51:24Z</time>
      </trkpt>
      <trkpt lat="47.52628" lon="0.45787">
        <ele>99</ele>
        <time>2016-11-15T17:53:24Z</time>
      </trkpt>
      <trkpt lat="47.52629" lon="0.45768">
        <ele>98</ele>
        <time>2016-11-15T17:55:24Z</time>
      </trkpt>
      <trkpt lat="47.52638" lon="0.45735">
        <ele>98</ele>
        <time>2016-11-15T17:57:24Z</time>
      </trkpt>
      <trkpt lat="47.52609" lon="0.45656">
        <ele>97</ele>
        <time>2016-11-15T17:59:24Z</time>
      </trkpt>
      <trkpt lat="47.52478" lon="0.45749">
        <ele>99</ele>
        <time>2016-11-15T18:01:24Z</time>
      </trkpt>
      <trkpt lat="47.52428" lon="0.45625">
        <ele>97</ele>
        <time>2016-11-15T18:03:24Z</time>
      </trkpt>
      <trkpt lat="47.52403" lon="0.45652">
        <ele>97</ele>
        <time>2016-11-15T18:05:24Z</time>
      </trkpt>
      <trkpt lat="47.52385" lon="0.45668">
        <ele>97</ele>
        <time>2016-11-15T18:07:24Z</time>
      </trkpt>
      <trkpt lat="47.52386" lon="0.45687">
        <ele>97</ele>
        <time>2016-11-15T18:09:24Z</time>
      </trkpt>
      <trkpt lat="47.52319" lon="0.45738">
        <ele>95</ele>
        <time>2016-11-15T18:11:24Z</time>
      </trkpt>
      <trkpt lat="47.52306" lon="0.45712">
        <ele>94</ele>
        <time>2016-11-15T18:13:24Z</time>
      </trkpt>
      <trkpt lat="47.52239" lon="0.45767">
        <ele>93</ele>
        <time>2016-11-15T18:15:24Z</time>
      </trkpt>
      <trkpt lat="47.52222" lon="0.45776">
        <ele>93</ele>
        <time>2016-11-15T18:17:24Z</time>
      </trkpt>
      <trkpt lat="47.52208" lon="0.45749">
        <ele>93</ele>
        <time>2016-11-15T18:19:24Z</time>
      </trkpt>
      <trkpt lat="47.52159" lon="0.45661">
        <ele>93</ele>
        <time>2016-11-15T18:21:24Z</time>
      </trkpt>
      <trkpt lat="47.5211" lon="0.45598">
        <ele>93</ele>
        <time>2016-11-15T18:23:24Z</time>
      </trkpt>
      <trkpt lat="47.52067" lon="0.45528">
        <ele>93</ele>
        <time>2016-11-15T18:25:24Z</time>
      </trkpt>
      <trkpt lat="47.52037" lon="0.45466">
        <ele>92</ele>
        <time>2016-11-15T18:27:24Z</time>
      </trkpt>
      <trkpt lat="47.52014" lon="0.45387">
        <ele>91</ele>
        <time>2016-11-15T18:29:24Z</time>
      </trkpt>
      <trkpt lat="47.5201" lon="0.45378">
        <ele>91</ele>
        <time>2016-11-15T18:31:24Z</time>
      </trkpt>
      <trkpt lat="47.51949" lon="0.45469">
        <ele>90</ele>
        <time>2016-11-15T18:33:24Z</time>
      </trkpt>
      <trkpt lat="47.51902" lon="0.45548">
        <ele>91</ele>
        <time>2016-11-15T18:35:24Z</time>
      </trkpt>
      <trkpt lat="47.51855" lon="0.45621">
        <ele>92</ele>
        <time>2016-11-15T18:37:24Z</time>
      </trkpt>
      <trkpt lat="47.51812" lon="0.45655">
        <ele>92</ele>
        <time>2016-11-15T18:39:24Z</time>
      </trkpt>
      <trkpt lat="47.51763" lon="0.4577">
        <ele>93</ele>
        <time>2016-11-15T18:41:24Z</time>
      </trkpt>
      <trkpt lat="47.51683" lon="0.45857">
        <ele>94</ele>
        <time>2016-11-15T18:43:24Z</time>
      </trkpt>
      <trkpt lat="47.51632" lon="0.45941">
        <ele>94</ele>
        <time>2016-11-15T18:45:24Z</time>
      </trkpt>
      <trkpt lat="47.51546" lon="0.46202">
        <ele>98</ele>
        <time>2016-11-15T18:47:24Z</time>
      </trkpt>
      <trkpt lat="47.51539" lon="0.46297">
        <ele>102</ele>
        <time>2016-11-15T18:49:24Z</time>
      </trkpt>
      <trkpt lat="47.51639" lon="0.46599">
        <ele>105</ele>
        <time>2016-11-15T18:51:24Z</time>
      </trkpt>
      <trkpt lat="47.51579" lon="0.46661">
        <ele>107</ele>
        <time>2016-11-15T18:53:24Z</time>
      </trkpt>
      <trkpt lat="47.51538" lon="0.46699">
        <ele>109</ele>
        <time>2016-11-15T18:55:24Z</time>
      </trkpt>
      <trkpt lat="47.51502" lon="0.46731">
        <ele>112</ele>
        <time>2016-11-15T18:57:24Z</time>
      </trkpt>
      <trkpt lat="47.5146" lon="0.46783">
        <ele>116</ele>
        <time>2016-11-15T18:59:24Z</time>
      </trkpt>
      <trkpt lat="47.51426" lon="0.4685">
        <ele>117</ele>
        <time>2016-11-15T19:01:24Z</time>
      </trkpt>
      <trkpt lat="47.51418" lon="0.46911">
        <ele>116</ele>
        <time>2016-11-15T19:03:24Z</time>
      </trkpt>
      <trkpt lat="47.51435" lon="0.4694">
        <ele>115</ele>
        <time>2016-11-15T19:05:24Z</time>
      </trkpt>
      <trkpt lat="47.51438" lon="0.46983">
        <ele>114</ele>
        <time>2016-11-15T19:07:24Z</time>
      </trkpt>
      <trkpt lat="47.51436" lon="0.47036">
        <ele>114</ele>
        <time>2016-11-15T19:09:24Z</time>
      </trkpt>
      <trkpt lat="47.51428" lon="0.47077">
        <ele>114</ele>
        <time>2016-11-15T19:11:24Z</time>
      </trkpt>
      <trkpt lat="47.51419" lon="0.47094">
        <ele>114</ele>
        <time>2016-11-15T19:13:24Z</time>
      </trkpt>
      <trkpt lat="47.51398" lon="0.47079">
        <ele>112</ele>
        <time>2016-11-15T19:15:24Z</time>
      </trkpt>
      <trkpt lat="47.51356" lon="0.47061">
        <ele>110</ele>
        <time>2016-11-15T19:17:24Z</time>
      </trkpt>
      <trkpt lat="47.51341" lon="0.47039">
        <ele>109</ele>
        <time>2016-11-15T19:19:24Z</time>
      </trkpt>
      <trkpt lat="47.51329" lon="0.47006">
        <ele>109</ele>
        <time>2016-11-15T19:21:24Z</time>
      </trkpt>
      <trkpt lat="47.51318" lon="0.46971">
        <ele>108</ele>
        <time>2016-11-15T19:23:24Z</time>
      </trkpt>
      <trkpt lat="47.51293" lon="0.46935">
        <ele>106</ele>
        <time>2016-11-15T19:25:24Z</time>
      </trkpt>
      <trkpt lat="47.51267" lon="0.46924">
        <ele>103</ele>
        <time>2016-11-15T19:27:24Z</time>
      </trkpt>
      <trkpt lat="47.51226" lon="0.46932">
        <ele>102</ele>
        <time>2016-11-15T19:29:24Z</time>
      </trkpt>
      <trkpt lat="47.51192" lon="0.46935">
        <ele>102</ele>
        <time>2016-11-15T19:31:24Z</time>
      </trkpt>
      <trkpt lat="47.51149" lon="0.46944">
        <ele>105</ele>
        <time>2016-11-15T19:33:24Z</time>
      </trkpt>
      <trkpt lat="47.51112" lon="0.46964">
        <ele>108</ele>
        <time>2016-11-15T19:35:24Z</time>
      </trkpt>
      <trkpt lat="47.5109" lon="0.46981">
        <ele>110</ele>
        <time>2016-11-15T19:37:24Z</time>
      </trkpt>
      <trkpt lat="47.51057" lon="0.46989">
        <ele>111</ele>
        <time>2016-11-15T19:39:24Z</time>
      </trkpt>
      <trkpt lat="47.5101" lon="0.47002">
        <ele>112</ele>
        <time>2016-11-15T19:41:24Z</time>
      </trkpt>
      <trkpt lat="47.50927" lon="0.47102">
        <ele>111</ele>
        <time>2016-11-15T19:43:24Z</time>
      </trkpt>
      <trkpt lat="47.50914" lon="0.4716">
        <ele>108</ele>
        <time>2016-11-15T19:45:24Z</time>
      </trkpt>
      <trkpt lat="47.50909" lon="0.4725">
        <ele>104</ele>
        <time>2016-11-15T19:47:24Z</time>
      </trkpt>
      <trkpt lat="47.509" lon="0.47302">
        <ele>104</ele>
        <time>2016-11-15T19:49:24Z</time>
      </trkpt>
      <trkpt lat="47.50827" lon="0.47442">
        <ele>105</ele>
        <time>2016-11-15T19:51:24Z</time>
      </trkpt>
      <trkpt lat="47.50784" lon="0.47509">
        <ele>106</ele>
        <time>2016-11-15T19:53:24Z</time>
      </trkpt>
      <trkpt lat="47.50769" lon="0.47556">
        <ele>106</ele>
        <time>2016-11-15T19:55:24Z</time>
      </trkpt>
      <trkpt lat="47.50753" lon="0.47659">
        <ele>105</ele>
        <time>2016-11-15T19:57:24Z</time>
      </trkpt>
      <trkpt lat="47.5071" lon="0.4773">
        <ele>107</ele>
        <time>2016-11-15T19:59:24Z</time>
      </trkpt>
      <trkpt lat="47.50681" lon="0.47797">
        <ele>109</ele>
        <time>2016-11-15T20:01:24Z</time>
      </trkpt>
      <trkpt lat="47.50635" lon="0.47932">
        <ele>110</ele>
        <time>2016-11-15T20:03:24Z</time>
      </trkpt>
      <trkpt lat="47.50622" lon="0.47986">
        <ele>109</ele>
        <time>2016-11-15T20:05:24Z</time>
      </trkpt>
      <trkpt lat="47.50618" lon="0.48038">
        <ele>110</ele>
        <time>2016-11-15T20:07:24Z</time>
      </trkpt>
      <trkpt lat="47.50628" lon="0.48072">
        <ele>110</ele>
        <time>2016-11-15T20:09:24Z</time>
      </trkpt>
      <trkpt lat="47.50626" lon="0.48108">
        <ele>111</ele>
        <time>2016-11-15T20:11:24Z</time>
      </trkpt>
      <trkpt lat="47.50621" lon="0.48174">
        <ele>112</ele>
        <time>2016-11-15T20:13:24Z</time>
      </trkpt>
      <trkpt lat="47.50636" lon="0.48253">
        <ele>113</ele>
        <time>2016-11-15T20:15:24Z</time>
      </trkpt>
      <trkpt lat="47.50655" lon="0.48338">
        <ele>115</ele>
        <time>2016-11-15T20:17:24Z</time>
      </trkpt>
      <trkpt lat="47.50657" lon="0.48408">
        <ele>114</ele>
        <time>2016-11-15T20:19:24Z</time>
      </trkpt>
      <trkpt lat="47.50644" lon="0.48466">
        <ele>114</ele>
        <time>2016-11-15T20:21:24Z</time>
      </trkpt>
      <trkpt lat="47.50613" lon="0.48535">
        <ele>115</ele>
        <time>2016-11-15T20:23:24Z</time>
      </trkpt>
      <trkpt lat="47.50586" lon="0.48605">
        <ele>115</ele>
        <time>2016-11-15T20:25:24Z</time>
      </trkpt>
      <trkpt lat="47.50575" lon="0.48695">
        <ele>116</ele>
        <time>2016-11-15T20:27:24Z</time>
      </trkpt>
      <trkpt lat="47.50571" lon="0.488">
        <ele>116</ele>
        <time>2016-11-15T20:29:24Z</time>
      </trkpt>
      <trkpt lat="47.50575" lon="0.48928">
        <ele>115</ele>
        <time>2016-11-15T20:31:24Z</time>
      </trkpt>
      <trkpt lat="47.50577" lon="0.4907">
        <ele>115</ele>
        <time>2016-11-15T20:33:24Z</time>
      </trkpt>
      <trkpt lat="47.50583" lon="0.49181">
        <ele>117</ele>
        <time>2016-11-15T20:35:24Z</time>
      </trkpt>
      <trkpt lat="47.5061" lon="0.49313">
        <ele>118</ele>
        <time>2016-11-15T20:37:24Z</time>
      </trkpt>
      <trkpt lat="47.50641" lon="0.49425">
        <ele>118</ele>
        <time>2016-11-15T20:39:24Z</time>
      </trkpt>
      <trkpt lat="47.50669" lon="0.49526">
        <ele>119</ele>
        <time>2016-11-15T20:41:24Z</time>
      </trkpt>
      <trkpt lat="47.5044" lon="0.49704">
        <ele>115</ele>
        <time>2016-11-15T20:43:24Z</time>
      </trkpt>
      <trkpt lat="47.5041" lon="0.49735">
        <ele>116</ele>
        <time>2016-11-15T20:45:24Z</time>
      </trkpt>
      <trkpt lat="47.50274" lon="0.49818">
        <ele>121</ele>
        <time>2016-11-15T20:47:24Z</time>
      </trkpt>
      <trkpt lat="47.50227" lon="0.49869">
        <ele>123</ele>
        <time>2016-11-15T20:49:24Z</time>
      </trkpt>
      <trkpt lat="47.50122" lon="0.49945">
        <ele>128</ele>
        <time>2016-11-15T20:51:24Z</time>
      </trkpt>
      <trkpt lat="47.50049" lon="0.50017">
        <ele>130</ele>
        <time>2016-11-15T20:53:24Z</time>
      </trkpt>
      <trkpt lat="47.50011" lon="0.50062">
        <ele>131</ele>
        <time>2016-11-15T20:55:24Z</time>
      </trkpt>
      <trkpt lat="47.49907" lon="0.503">
        <ele>133</ele>
        <time>2016-11-15T20:57:24Z</time>
      </trkpt>
      <trkpt lat="47.50013" lon="0.50351">
        <ele>127</ele>
        <time>2016-11-15T20:59:24Z</time>
      </trkpt>
      <trkpt lat="47.50061" lon="0.50361">
        <ele>127</ele>
        <time>2016-11-15T21:01:24Z</time>
      </trkpt>
      <trkpt lat="47.50229" lon="0.50457">
        <ele>127</ele>
        <time>2016-11-15T21:03:24Z</time>
      </trkpt>
      <trkpt lat="47.50352" lon="0.50548">
        <ele>125</ele>
        <time>2016-11-15T21:05:24Z</time>
      </trkpt>
      <trkpt lat="47.50451" lon="0.50637">
        <ele>122</ele>
        <time>2016-11-15T21:07:24Z</time>
      </trkpt>
      <trkpt lat="47.50593" lon="0.50807">
        <ele>121</ele>
        <time>2016-11-15T21:09:24Z</time>
      </trkpt>
      <trkpt lat="47.5085" lon="0.50472">
        <ele>118</ele>
        <time>2016-11-15T21:11:24Z</time>
      </trkpt>
      <trkpt lat="47.50883" lon="0.50411">
        <ele>118</ele>
        <time>2016-11-15T21:13:24Z</time>
      </trkpt>
      <trkpt lat="47.5102" lon="0.50615">
        <ele>118</ele>
        <time>2016-11-15T21:15:24Z</time>
      </trkpt>
      <trkpt lat="47.51111" lon="0.50698">
        <ele>119</ele>
        <time>2016-11-15T21:17:24Z</time>
      </trkpt>
      <trkpt lat="47.51187" lon="0.50761">
        <ele>124</ele>
        <time>2016-11-15T21:19:24Z</time>
      </trkpt>
      <trkpt lat="47.51214" lon="0.50744">
        <ele>125</ele>
        <time>2016-11-15T21:21:24Z</time>
      </trkpt>
      <trkpt lat="47.51276" lon="0.50758">
        <ele>127</ele>
        <time>2016-11-15T21:23:24Z</time>
      </trkpt>
      <trkpt lat="47.51327" lon="0.50767">
        <ele>128</ele>
        <time>2016-11-15T21:25:24Z</time>
      </trkpt>
      <trkpt lat="47.51399" lon="0.50791">
        <ele>129</ele>
        <time>2016-11-15T21:27:24Z</time>
      </trkpt>
      <trkpt lat="47.51423" lon="0.50812">
        <ele>130</ele>
        <time>2016-11-15T21:29:24Z</time>
      </trkpt>
      <trkpt lat="47.51442" lon="0.50852">
        <ele>132</ele>
        <time>2016-11-15T21:31:24Z</time>
      </trkpt>
      <trkpt lat="47.51473" lon="0.50865">
        <ele>132</ele>
        <time>2016-11-15T21:33:24Z</time>
      </trkpt>
      <trkpt lat="47.51496" lon="0.50869">
        <ele>132</ele>
        <time>2016-11-15T21:35:24Z</time>
      </trkpt>
      <trkpt lat="47.51551" lon="0.50855">
        <ele>131</ele>
        <time>2016-11-15T21:37:24Z</time>
      </trkpt>
      <trkpt lat="47.51692" lon="0.50916">
        <ele>129</ele>
        <time>2016-11-15T21:39:24Z</time>
      </trkpt>
      <trkpt lat="47.51859" lon="0.50992">
        <ele>132</ele>
        <time>2016-11-15T21:41:24Z</time>
      </trkpt>
      <trkpt lat="47.5191" lon="0.51058">
        <ele>135</ele>
        <time>2016-11-15T21:43:24Z</time>
      </trkpt>
      <trkpt lat="47.51949" lon="0.50878">
        <ele>137</ele>
        <time>2016-11-15T21:45:24Z</time>
      </trkpt>
      <trkpt lat="47.52048" lon="0.50662">
        <ele>140</ele>
        <time>2016-11-15T21:47:24Z</time>
      </trkpt>
      <trkpt lat="47.52073" lon="0.50581">
        <ele>140</ele>
        <time>2016-11-15T21:49:24Z</time>
      </trkpt>
      <trkpt lat="47.52097" lon="0.50411">
        <ele>135</ele>
        <time>2016-11-15T21:51:24Z</time>
      </trkpt>
      <trkpt lat="47.52155" lon="0.50198">
        <ele>133</ele>
        <time>2016-11-15T21:53:24Z</time>
      </trkpt>
      <trkpt lat="47.52239" lon="0.4993">
        <ele>129</ele>
        <time>2016-11-15T21:55:24Z</time>
      </trkpt>
      <trkpt lat="47.52247" lon="0.49754">
        <ele>129</ele>
        <time>2016-11-15T21:57:24Z</time>
      </trkpt>
      <trkpt lat="47.51969" lon="0.49428">
        <ele>126</ele>
        <time>2016-11-15T21:59:24Z</time>
      </trkpt>
      <trkpt lat="47.51975" lon="0.49407">
        <ele>126</ele>
        <time>2016-11-15T22:01:24Z</time>
      </trkpt>
      <trkpt lat="47.52002" lon="0.49343">
        <ele>125</ele>
        <time>2016-11-15T22:03:24Z</time>
      </trkpt>
      <trkpt lat="47.52013" lon="0.49136">
        <ele>124</ele>
        <time>2016-11-15T22:05:24Z</time>
      </trkpt>
      <trkpt lat="47.51958" lon="0.4907">
        <ele>124</ele>
        <time>2016-11-15T22:07:24Z</time>
      </trkpt>
      <trkpt lat="47.51899" lon="0.49015">
        <ele>126</ele>
        <time>2016-11-15T22:09:24Z</time>
      </trkpt>
      <trkpt lat="47.51813" lon="0.48879">
        <ele>125</ele>
        <time>2016-11-15T22:11:24Z</time>
      </trkpt>
      <trkpt lat="47.52009" lon="0.48659">
        <ele>124</ele>
        <time>2016-11-15T22:13:24Z</time>
      </trkpt>
      <trkpt lat="47.52227" lon="0.48296">
        <ele>121</ele>
        <time>2016-11-15T22:15:24Z</time>
      </trkpt>
      <trkpt lat="47.52261" lon="0.48221">
        <ele>121</ele>
        <time>2016-11-15T22:17:24Z</time>
      </trkpt>
      <trkpt lat="47.52417" lon="0.47987">
        <ele>124</ele>
        <time>2016-11-15T22:19:24Z</time>
      </trkpt>
      <trkpt lat="47.52482" lon="0.47985">
        <ele>122</ele>
        <time>2016-11-15T22:21:24Z</time>
      </trkpt>
      <trkpt lat="47.52407" lon="0.47636">
        <ele>117</ele>
        <time>2016-11-15T22:23:24Z</time>
      </trkpt>
      <trkpt lat="47.52709" lon="0.47483">
        <ele>121</ele>
        <time>2016-11-15T22:25:24Z</time>
      </trkpt>
      <trkpt lat="47.52628" lon="0.47093">
        <ele>121</ele>
        <time>2016-11-15T22:27:24Z</time>
      </trkpt>
      <trkpt lat="47.5258" lon="0.46953">
        <ele>121</ele>
        <time>2016-11-15T22:29:24Z</time>
      </trkpt>
      <trkpt lat="47.52535" lon="0.46769">
        <ele>121</ele>
        <time>2016-11-15T22:31:24Z</time>
      </trkpt>
      <trkpt lat="47.52512" lon="0.46709">
        <ele>120</ele>
        <time>2016-11-15T22:33:24Z</time>
      </trkpt>
      <trkpt lat="47.52545" lon="0.46658">
        <ele>120</ele>
        <time>2016-11-15T22:35:24Z</time>
      </trkpt>
      <trkpt lat="47.52585" lon="0.46683">
        <ele>121</ele>
        <time>2016-11-15T22:37:24Z</time>
      </trkpt>
      <trkpt lat="47.52618" lon="0.46695">
        <ele>121</ele>
        <time>2016-11-15T22:39:24Z</time>
      </trkpt>
      <trkpt lat="47.52661" lon="0.46626">
        <ele>121</ele>
        <time>2016-11-15T22:41:24Z</time>
      </trkpt>
      <trkpt lat="47.52707" lon="0.46548">
        <ele>116</ele>
        <time>2016-11-15T22:43:24Z</time>
      </trkpt>
      <trkpt lat="47.52778" lon="0.4647">
        <ele>110</ele>
        <time>2016-11-15T22:45:24Z</time>
      </trkpt>
      <trkpt lat="47.52695" lon="0.46266">
        <ele>108</ele>
        <time>2016-11-15T22:47:24Z</time>
      </trkpt>
      <trkpt lat="47.52671" lon="0.46202">
        <ele>106</ele>
        <time>2016-11-15T22:49:24Z</time>
      </trkpt>
      <trkpt lat="47.52749" lon="0.46086">
        <ele>102</ele>
        <time>2016-11-15T22:51:24Z</time>
      </trkpt>
      <trkpt lat="47.52734" lon="0.4605">
        <ele>101</ele>
        <time>2016-11-15T22:53:24Z</time>
      </trkpt>
    </trkseg>
  </trk>
</gpx>